الصفحة الرئيسية
METAR-TAF:

METAR-TAF

مطار :

مطار سكوبية الدولي

سكوبيه, مقدونيا

دائرة عرض: 41-58N, خط طول: 021-39E, ارتفاع: 238 متر

مراقبة الطقس الحالي

تاريخ ووقت الإصدار 33 دقيقة قبل الساعة 11:50UTC
ريح 10 عقدة من الشمال
درجة الحرارة 21°درجة مئوية
الرطوبة 60%
ضغط 1012 hPa
الرؤية 10 كم أو أكثر
غيوم قليلة على ارتفاع 2900 قدم, مزنة ركامية.
غيوم متفرقة على ارتفاع 5000 قدم
مطر خفيف,

METAR: LWSK 291150Z 01010KT 9999 -RA FEW029CB SCT050 21/13 Q1012 NOSIG

زمن: 14:23 (12:23 UTC)

توقعات

تاريخ ووقت الإصدار 1ساعة و 8 دقيقة قبل الساعة 11:15UTC
التوقعات صالحة من29 الساعة 12 UTC إلى 30 الساعة 12 UTC
ريح 2 عقدةمن اتجاهات متغيرة
الرؤية 10 كم أو أكثر
غيوم متفرقة على ارتفاع 4000 قدم
مؤقت
من 29 الساعة 12 UTC إلى 29 الساعة 18 UTC
ريح 20 عقدةمن اتجاهات متغيرة
غيوم مفككة على ارتفاع 4000 قدم
عاصفة رعدية, مطر,

TAF: LWSK 291115Z 2912/3012 VRB02KT 9999 SCT040 TEMPO 2912/2918 VRB20KT TSRA FEWO33CB BKN040

أرصاد الطقس والتوقعات من أكثر من 4000 مطار (تقارير الطقس للمطار METAR والتنبؤ بالطقس بالمطارTAF).

المحطات المتاحة هي النقط الصفراء والحمراء على الخريطة.

حرك المؤشر فوق النقطة لمعرفة اسم المحطة.

ثم انقر لمعرفة أرصاد وتوقعات الطقس.

لتغيير الخارطة: اضغط على الأزرار الخضراء مع رمز الصليب الأسود للتكبير. على الزر الأخضر مع شرطة للتصغير، أو على الأسهم الخضراء للخرائط المجاورة.


METAR-TAF: